Time;durP1;ratioP1;P1;durP2;ratioP2;P2;SDS_P1;SDS_P2;PMS_P1;PMS_P2;Temp;Humidity;BMP_temperature;BMP_pressure;BME280_temperature;BME280_humidity;BME280_pressure;Samples;Min_cycle;Max_cycle;Signal;HPM_P1;HPM_P2
2023/08/11 00:01:37;;;;;;;6.32;5.32;;;;;;;19.61;65.71;101912.44;5051730;28;20029;-73
2023/08/11 00:04:03;;;;;;;9.27;5.07;;;;;;;19.52;65.20;101907.59;5054027;28;20059;-73
2023/08/11 00:06:29;;;;;;;8.07;4.65;;;;;;;19.38;66.30;101911.09;5052121;28;20111;-74
2023/08/11 00:08:54;;;;;;;7.45;5.18;;;;;;;19.30;67.26;101904.47;5030437;28;20029;-71
2023/08/11 00:11:19;;;;;;;6.78;4.82;;;;;;;19.37;66.38;101909.38;5055219;28;20108;-71
2023/08/11 00:13:45;;;;;;;8.13;5.80;;;;;;;19.43;67.33;101918.00;5051753;28;20032;-71
2023/08/11 00:16:11;;;;;;;5.90;4.95;;;;;;;19.45;66.94;101911.63;5045897;28;20016;-71
2023/08/11 00:18:37;;;;;;;6.97;5.30;;;;;;;19.36;67.32;101906.81;5054399;28;20480;-73
2023/08/11 00:21:03;;;;;;;5.97;5.43;;;;;;;19.36;65.83;101915.72;5054502;28;20120;-73
2023/08/11 00:23:28;;;;;;;5.50;5.00;;;;;;;19.33;66.32;101913.19;5047470;28;20036;-73
2023/08/11 00:25:53;;;;;;;6.78;5.88;;;;;;;19.27;66.63;101908.22;5059019;28;20033;-73
2023/08/11 00:28:19;;;;;;;6.28;5.25;;;;;;;19.22;66.27;101907.63;5053091;28;20056;-73
2023/08/11 00:30:44;;;;;;;7.05;5.30;;;;;;;19.08;66.70;101904.91;5049660;28;20525;-73
2023/08/11 00:33:10;;;;;;;10.40;5.10;;;;;;;19.08;67.69;101904.91;5048493;28;20036;-73
2023/08/11 00:35:35;;;;;;;7.20;5.07;;;;;;;19.11;67.59;101902.00;5042610;28;20389;-73
2023/08/11 00:38:01;;;;;;;7.13;5.15;;;;;;;19.21;67.47;101908.59;5049559;28;20035;-73
2023/08/11 00:40:26;;;;;;;6.35;5.57;;;;;;;19.19;67.45;101905.13;5050253;28;20029;-73
2023/08/11 00:42:52;;;;;;;7.40;5.40;;;;;;;19.18;67.75;101903.41;5047829;28;20106;-73
2023/08/11 00:45:17;;;;;;;6.85;6.05;;;;;;;19.23;66.95;101909.34;5035154;28;20530;-73
2023/08/11 00:47:42;;;;;;;9.65;5.80;;;;;;;19.19;67.25;101899.75;5051436;28;20021;-73
2023/08/11 00:50:10;;;;;;;10.23;6.07;;;;;;;19.11;67.52;101904.69;5059412;28;20020;-73
2023/08/11 00:52:37;;;;;;;6.10;5.50;;;;;;;19.07;66.80;101900.47;5051948;28;20081;-74
2023/08/11 00:55:03;;;;;;;7.93;5.75;;;;;;;18.99;67.91;101892.91;5050165;28;20033;-73
2023/08/11 00:57:28;;;;;;;6.60;4.68;;;;;;;18.97;67.34;101889.44;5053154;28;20487;-73
2023/08/11 00:59:56;;;;;;;6.60;5.35;;;;;;;18.93;67.68;101879.88;5057640;28;20033;-73
2023/08/11 01:02:21;;;;;;;5.93;4.68;;;;;;;18.89;67.42;101880.13;5048744;28;20035;-73
2023/08/11 01:04:48;;;;;;;6.65;5.00;;;;;;;18.86;67.68;101876.66;5048761;28;20029;-73
2023/08/11 01:07:27;;;;;;;7.57;5.80;;;;;;;18.92;67.54;101882.63;5053076;28;20021;-73
2023/08/11 01:10:06;;;;;;;7.40;5.10;;;;;;;18.90;68.01;101876.50;5052679;28;20040;-73
2023/08/11 01:12:51;;;;;;;7.32;5.13;;;;;;;18.93;66.73;101874.50;5057440;28;20036;-73
2023/08/11 01:15:26;;;;;;;6.38;5.32;;;;;;;18.79;67.05;101874.41;5051003;28;20150;-73
2023/08/11 01:17:53;;;;;;;7.50;5.50;;;;;;;18.77;67.69;101869.16;5049278;28;20100;-73
2023/08/11 01:20:19;;;;;;;8.13;5.95;;;;;;;18.77;67.81;101877.19;5055713;28;20028;-73
2023/08/11 01:22:50;;;;;;;7.22;5.32;;;;;;;18.80;67.63;101869.00;5058497;28;20020;-73
2023/08/11 01:25:16;;;;;;;8.20;5.50;;;;;;;18.78;68.26;101865.53;5047199;28;20021;-73
2023/08/11 01:27:52;;;;;;;7.40;5.72;;;;;;;18.81;67.78;101860.00;5054232;28;20409;-73
2023/08/11 01:30:18;;;;;;;7.43;5.57;;;;;;;18.78;68.44;101860.16;5051029;28;20408;-73
2023/08/11 01:32:44;;;;;;;8.82;6.35;;;;;;;18.73;68.99;101856.91;5051315;28;20029;-73
2023/08/11 01:35:10;;;;;;;8.32;7.13;;;;;;;18.71;69.53;101856.13;5050707;28;20055;-73
2023/08/11 01:37:35;;;;;;;7.55;6.32;;;;;;;18.69;69.59;101849.97;5050628;28;20659;-73
2023/08/11 01:40:00;;;;;;;7.57;6.32;;;;;;;18.69;69.70;101858.03;5050769;28;20029;-73
2023/08/11 01:42:26;;;;;;;7.80;6.60;;;;;;;18.67;69.93;101862.59;5054439;28;20111;-73
2023/08/11 01:44:52;;;;;;;8.18;7.13;;;;;;;18.64;69.44;101862.75;5047617;28;20032;-73
2023/08/11 01:47:18;;;;;;;8.75;7.10;;;;;;;18.65;69.59;101869.81;5034490;28;20110;-73
2023/08/11 01:49:45;;;;;;;10.18;7.50;;;;;;;18.64;68.83;101861.88;5049584;28;20052;-73
2023/08/11 01:52:10;;;;;;;9.80;7.03;;;;;;;18.63;68.12;101868.22;5034946;28;20029;-73
2023/08/11 01:54:36;;;;;;;10.27;7.40;;;;;;;18.56;68.62;101865.91;5051713;28;20075;-73
2023/08/11 01:57:02;;;;;;;9.40;7.57;;;;;;;18.51;69.32;101867.97;5060954;28;20396;-73
2023/08/11 01:59:28;;;;;;;9.02;7.25;;;;;;;18.47;68.49;101863.75;5055856;28;20071;-73
2023/08/11 02:01:54;;;;;;;9.77;7.38;;;;;;;18.49;68.20;101860.97;5054158;28;20024;-73
2023/08/11 02:04:19;;;;;;;12.05;7.72;;;;;;;18.36;68.58;101852.75;5035970;28;20102;-73
2023/08/11 02:06:45;;;;;;;8.63;7.63;;;;;;;18.30;68.63;101858.47;5033025;28;20078;-71
2023/08/11 02:09:12;;;;;;;9.20;7.55;;;;;;;18.17;69.20;101855.59;5050080;28;20235;-71
2023/08/11 02:11:39;;;;;;;8.40;7.00;;;;;;;18.13;69.82;101853.19;5051565;28;20555;-71
2023/08/11 02:14:05;;;;;;;11.00;7.70;;;;;;;18.02;69.55;101845.75;5055062;28;20024;-71
2023/08/11 02:16:30;;;;;;;10.23;8.25;;;;;;;17.99;70.38;101856.63;5054723;28;20028;-71
2023/08/11 02:18:56;;;;;;;10.20;8.13;;;;;;;18.03;70.68;101843.00;5050901;28;20028;-71
2023/08/11 02:21:21;;;;;;;10.75;8.10;;;;;;;18.03;71.14;101850.16;5053643;28;20111;-71
2023/08/11 02:23:46;;;;;;;11.48;7.43;;;;;;;18.07;70.14;101841.88;5049035;28;20473;-71
2023/08/11 02:26:13;;;;;;;9.27;8.27;;;;;;;18.08;69.24;101845.41;5060214;28;20028;-71
2023/08/11 02:28:38;;;;;;;8.65;7.78;;;;;;;18.01;69.11;101844.91;5053013;28;20033;-71
2023/08/11 02:31:03;;;;;;;10.38;8.15;;;;;;;17.94;69.58;101840.81;5053963;28;20499;-71
2023/08/11 02:33:29;;;;;;;12.05;8.85;;;;;;;17.94;70.42;101834.59;5050508;28;20028;-71
2023/08/11 02:35:54;;;;;;;12.00;8.20;;;;;;;17.93;70.21;101844.44;5050822;28;20480;-71
2023/08/11 02:38:19;;;;;;;9.25;8.35;;;;;;;17.99;70.38;101843.25;5052083;28;20293;-71
2023/08/11 02:40:45;;;;;;;12.65;9.27;;;;;;;18.01;70.44;101842.22;5057312;28;20024;-71
2023/08/11 02:43:11;;;;;;;12.18;8.65;;;;;;;18.01;70.18;101849.38;5053539;28;20025;-71
2023/08/11 02:45:36;;;;;;;9.77;8.82;;;;;;;17.97;70.95;101853.19;5049010;28;20040;-71
2023/08/11 02:48:01;;;;;;;12.43;8.27;;;;;;;17.99;70.77;101856.63;5050499;28;20036;-71
2023/08/11 02:50:27;;;;;;;13.57;9.43;;;;;;;18.02;71.41;101853.78;5056644;28;20418;-71
2023/08/11 02:52:53;;;;;;;13.15;9.45;;;;;;;17.99;71.03;101857.47;5055140;28;20074;-71
2023/08/11 02:55:19;;;;;;;13.63;9.65;;;;;;;18.01;71.13;101857.41;5051555;28;20045;-71
2023/08/11 02:57:45;;;;;;;14.73;10.90;;;;;;;17.95;71.92;101852.38;5063949;28;20017;-70
2023/08/11 03:00:14;;;;;;;12.13;9.98;;;;;;;17.89;72.05;101858.94;5056197;28;20036;-71
2023/08/11 03:02:41;;;;;;;11.23;9.55;;;;;;;17.84;71.38;101856.50;5054280;28;20037;-71
2023/08/11 03:05:07;;;;;;;9.88;8.88;;;;;;;17.82;70.85;101861.09;5057542;28;20426;-71
2023/08/11 03:07:36;;;;;;;10.95;9.45;;;;;;;17.77;70.73;101852.47;5055965;28;20566;-70
2023/08/11 03:10:02;;;;;;;17.92;9.27;;;;;;;17.74;70.61;101855.28;5045045;28;20376;-71
2023/08/11 03:12:28;;;;;;;10.13;8.70;;;;;;;17.65;70.70;101850.41;5056275;28;20035;-71
2023/08/11 03:14:54;;;;;;;10.10;8.05;;;;;;;17.57;70.77;101844.59;5050596;28;20247;-71
2023/08/11 03:17:19;;;;;;;12.57;8.18;;;;;;;17.50;70.42;101846.75;5055186;28;20535;-73
2023/08/11 03:19:44;;;;;;;10.95;9.15;;;;;;;17.52;71.23;101835.97;5047976;28;20116;-73
2023/08/11 03:22:10;;;;;;;10.57;8.93;;;;;;;17.56;71.18;101837.53;5052318;28;20033;-73
2023/08/11 03:24:35;;;;;;;7.60;6.72;;;;;;;17.59;70.51;101837.38;5054635;28;20296;-73
2023/08/11 03:27:00;;;;;;;6.72;6.05;;;;;;;17.65;70.26;101842.38;5049357;28;20045;-73
2023/08/11 03:29:25;;;;;;;6.57;5.93;;;;;;;17.60;70.60;101842.63;5056332;28;20464;-73
2023/08/11 03:31:51;;;;;;;8.35;5.78;;;;;;;17.59;70.02;101840.91;5053413;28;20029;-73
2023/08/11 03:34:16;;;;;;;7.43;6.70;;;;;;;17.56;69.96;101841.06;5033609;28;20476;-73
2023/08/11 03:36:43;;;;;;;8.90;7.43;;;;;;;17.51;71.09;101847.59;5038350;28;20025;-74
2023/08/11 03:39:08;;;;;;;11.85;8.48;;;;;;;17.43;71.43;101850.66;5048109;28;20044;-73
2023/08/11 03:41:33;;;;;;;11.45;8.50;;;;;;;17.38;71.84;101839.38;5051514;28;20017;-74
2023/08/11 03:43:59;;;;;;;9.73;7.55;;;;;;;17.38;71.79;101843.84;5036949;28;20476;-74
2023/08/11 03:46:24;;;;;;;9.07;8.13;;;;;;;17.28;72.17;101838.13;5057868;28;20047;-73
2023/08/11 03:48:50;;;;;;;9.13;8.07;;;;;;;17.33;71.79;101847.63;5048148;28;20020;-73
2023/08/11 03:51:15;;;;;;;12.63;8.55;;;;;;;17.30;70.99;101842.47;5048795;28;20471;-73
2023/08/11 03:53:40;;;;;;;12.02;8.27;;;;;;;17.23;70.93;101841.03;5052724;28;20025;-73
2023/08/11 03:56:07;;;;;;;13.18;9.63;;;;;;;17.18;71.83;101836.88;5036619;28;20032;-73
2023/08/11 03:58:35;;;;;;;12.50;9.13;;;;;;;17.12;71.64;101837.22;5052937;28;20104;-73
2023/08/11 04:01:00;;;;;;;10.48;9.05;;;;;;;17.10;71.87;101831.91;5048019;28;20538;-73
2023/08/11 04:03:28;;;;;;;11.18;9.63;;;;;;;17.12;71.22;101838.06;5049772;28;20281;-73
2023/08/11 04:05:53;;;;;;;9.10;8.15;;;;;;;17.13;71.69;101828.25;5052071;28;20016;-73
2023/08/11 04:08:19;;;;;;;11.13;9.02;;;;;;;17.14;71.61;101830.81;5047854;28;20025;-73
2023/08/11 04:10:44;;;;;;;12.30;10.07;;;;;;;17.11;71.57;101830.09;5048277;28;20031;-73
2023/08/11 04:13:10;;;;;;;10.85;9.75;;;;;;;17.09;72.31;101832.88;5056918;28;20388;-73
2023/08/11 04:15:35;;;;;;;11.23;9.60;;;;;;;17.10;71.71;101839.94;5052981;28;20028;-73
2023/08/11 04:18:00;;;;;;;11.70;9.27;;;;;;;17.14;72.04;101835.31;5051060;28;20028;-73
2023/08/11 04:20:28;;;;;;;11.38;9.32;;;;;;;17.18;71.50;101836.88;5053613;28;20551;-73
2023/08/11 04:22:53;;;;;;;13.73;10.02;;;;;;;17.17;71.83;101833.34;5058815;28;20031;-73
2023/08/11 04:25:19;;;;;;;12.95;10.13;;;;;;;17.18;71.82;101834.22;5050316;28;20032;-74
2023/08/11 04:27:44;;;;;;;11.88;10.68;;;;;;;17.14;72.04;101838.84;5055313;28;20107;-71
2023/08/11 04:30:10;;;;;;;12.85;10.88;;;;;;;17.14;71.89;101835.31;5063947;28;20033;-71
2023/08/11 04:32:36;;;;;;;17.10;12.48;;;;;;;17.11;72.37;101838.97;5054157;28;20032;-70
2023/08/11 04:35:01;;;;;;;13.45;11.50;;;;;;;17.10;72.67;101839.94;5053079;28;20141;-71
2023/08/11 04:37:26;;;;;;;16.75;13.30;;;;;;;17.08;73.32;101841.84;5057328;28;20027;-70
2023/08/11 04:39:52;;;;;;;12.98;11.48;;;;;;;16.99;74.30;101837.81;5057032;28;20029;-71
2023/08/11 04:42:17;;;;;;;12.02;10.82;;;;;;;16.91;74.36;101839.16;5051512;28;20032;-70
2023/08/11 04:44:42;;;;;;;13.10;11.80;;;;;;;16.90;74.52;101834.75;5056737;28;20494;-70
2023/08/11 04:47:08;;;;;;;17.90;13.57;;;;;;;16.87;75.04;101832.22;5063447;28;20037;-71
2023/08/11 04:49:33;;;;;;;20.02;14.75;;;;;;;16.86;75.67;101830.50;5054045;28;20029;-71
2023/08/11 04:51:59;;;;;;;17.80;13.45;;;;;;;16.79;75.67;101824.63;5056616;28;20047;-70
2023/08/11 04:54:24;;;;;;;14.05;12.18;;;;;;;16.77;75.35;101822.00;5053041;28;20037;-71
2023/08/11 04:56:50;;;;;;;15.43;12.55;;;;;;;16.81;75.31;101820.91;5035815;28;20384;-71
2023/08/11 04:59:16;;;;;;;17.60;12.80;;;;;;;16.89;75.65;101819.69;5052997;28;20043;-70
2023/08/11 05:01:41;;;;;;;18.40;14.00;;;;;;;17.02;75.00;101815.41;5036508;28;20425;-70
2023/08/11 05:04:08;;;;;;;17.52;13.00;;;;;;;17.12;73.63;101816.69;5063737;28;20092;-71
2023/08/11 05:06:33;;;;;;;18.27;13.13;;;;;;;17.18;74.54;101816.34;5058346;28;20037;-71
2023/08/11 05:08:59;;;;;;;18.48;13.82;;;;;;;17.10;74.15;101818.56;5052361;28;20055;-71
2023/08/11 05:11:26;;;;;;;20.17;13.88;;;;;;;17.11;74.88;101809.59;5053248;28;20032;-71
2023/08/11 05:13:51;;;;;;;18.75;14.20;;;;;;;17.14;74.86;101806.78;5056514;28;20082;-71
2023/08/11 05:16:17;;;;;;;17.10;13.63;;;;;;;17.24;74.02;101813.34;5038271;28;20029;-71
2023/08/11 05:18:42;;;;;;;15.88;13.55;;;;;;;17.24;73.78;101810.69;5042534;28;20036;-70
2023/08/11 05:21:07;;;;;;;17.02;14.00;;;;;;;17.28;74.14;101812.25;5055779;28;20028;-71
2023/08/11 05:23:33;;;;;;;19.02;14.73;;;;;;;17.30;74.17;101805.03;5053862;28;20024;-71
2023/08/11 05:25:58;;;;;;;18.30;14.18;;;;;;;17.33;74.29;101807.53;5042296;28;20269;-70
2023/08/11 05:28:23;;;;;;;19.52;14.65;;;;;;;17.41;74.25;101809.81;5042961;28;20033;-70
2023/08/11 05:30:49;;;;;;;17.85;14.88;;;;;;;17.48;74.48;101808.50;5044195;28;20036;-71
2023/08/11 05:33:14;;;;;;;22.33;13.55;;;;;;;17.54;74.21;101810.03;5044320;28;20040;-70
2023/08/11 05:35:40;;;;;;;21.65;14.23;;;;;;;17.58;74.12;101809.78;5035543;28;20029;-70
2023/08/11 05:38:05;;;;;;;16.83;13.63;;;;;;;17.64;73.90;101799.69;5051925;28;20033;-70
2023/08/11 05:40:31;;;;;;;21.38;14.15;;;;;;;17.73;73.43;101799.19;5048277;28;20012;-70
2023/08/11 05:42:57;;;;;;;19.85;14.30;;;;;;;17.76;73.85;101799.88;5041702;28;20472;-70
2023/08/11 05:45:22;;;;;;;19.77;14.10;;;;;;;17.82;73.84;101802.25;5050681;28;20079;-70
2023/08/11 05:47:47;;;;;;;18.38;13.57;;;;;;;17.87;73.82;101798.47;5048765;28;20622;-70
2023/08/11 05:50:13;;;;;;;17.48;13.50;;;;;;;17.93;73.76;101798.09;5041687;28;20025;-71
2023/08/11 05:52:39;;;;;;;19.38;14.02;;;;;;;17.97;73.31;101795.19;5049791;28;20032;-70
2023/08/11 05:55:05;;;;;;;18.45;13.52;;;;;;;18.02;73.60;101797.59;5049800;28;20061;-70
2023/08/11 05:57:30;;;;;;;17.05;14.07;;;;;;;18.06;73.86;101796.47;5045057;28;20091;-71
2023/08/11 05:59:56;;;;;;;18.05;14.45;;;;;;;18.11;74.05;101797.06;5036655;28;20450;-70
2023/08/11 06:02:21;;;;;;;19.13;13.93;;;;;;;18.18;73.56;101800.25;5047077;28;20108;-71
2023/08/11 06:04:47;;;;;;;19.15;13.10;;;;;;;18.23;74.06;101798.19;5051678;28;20457;-70
2023/08/11 06:07:13;;;;;;;16.92;12.63;;;;;;;18.27;73.71;101799.72;5050976;28;20037;-70
2023/08/11 06:09:39;;;;;;;15.95;11.90;;;;;;;18.35;73.70;101801.03;5041331;28;20025;-71
2023/08/11 06:12:05;;;;;;;20.50;13.00;;;;;;;18.41;73.57;101797.13;5043140;28;20197;-71
2023/08/11 06:14:30;;;;;;;18.95;12.98;;;;;;;18.48;72.81;101800.31;5049055;28;20119;-71
2023/08/11 06:16:55;;;;;;;15.57;12.77;;;;;;;18.55;72.58;101804.34;5050698;28;20099;-70
2023/08/11 06:19:21;;;;;;;21.00;13.20;;;;;;;18.55;73.40;101797.19;5051228;28;20095;-70
2023/08/11 06:21:46;;;;;;;17.50;12.65;;;;;;;18.58;72.52;101798.84;5048794;28;20482;-70
2023/08/11 06:24:12;;;;;;;17.80;13.35;;;;;;;18.65;73.17;101800.19;5027405;28;20031;-71
2023/08/11 06:26:37;;;;;;;17.35;13.52;;;;;;;18.69;73.86;101804.44;5045493;28;20017;-71
2023/08/11 06:29:04;;;;;;;19.45;13.70;;;;;;;18.75;73.48;101803.25;5052748;28;20492;-70
2023/08/11 06:31:30;;;;;;;17.55;13.02;;;;;;;18.83;73.12;101812.53;5042330;28;20028;-71
2023/08/11 06:33:55;;;;;;;17.77;13.00;;;;;;;18.84;72.04;101806.25;5042227;28;20491;-71
2023/08/11 06:36:20;;;;;;;19.58;12.70;;;;;;;18.92;72.83;101804.91;5040588;28;20028;-71
2023/08/11 06:38:46;;;;;;;15.98;12.70;;;;;;;19.01;72.32;101805.22;5043683;28;20032;-71
2023/08/11 06:41:11;;;;;;;18.52;12.20;;;;;;;19.10;72.14;101803.81;5048310;28;20516;-71
2023/08/11 06:43:38;;;;;;;15.70;12.50;;;;;;;19.28;71.61;101813.41;5049608;28;20036;-71
2023/08/11 06:46:04;;;;;;;14.95;11.95;;;;;;;19.38;71.57;101809.19;5060551;28;20499;-71
2023/08/11 06:48:29;;;;;;;16.17;11.40;;;;;;;19.48;71.37;101817.53;5041375;28;20032;-70
2023/08/11 06:50:56;;;;;;;15.38;11.05;;;;;;;19.62;71.17;101819.38;5051539;28;20487;-70
2023/08/11 06:53:21;;;;;;;15.13;11.75;;;;;;;19.71;71.70;101826.00;5051605;28;20041;-71
2023/08/11 06:55:47;;;;;;;17.73;11.07;;;;;;;19.81;71.65;101825.31;5050197;28;20056;-71
2023/08/11 06:58:12;;;;;;;17.15;10.15;;;;;;;20.00;72.04;101826.81;5047550;28;20433;-71
2023/08/11 07:00:37;;;;;;;16.75;10.15;;;;;;;20.17;70.71;101823.06;5053669;28;20025;-71
2023/08/11 07:03:03;;;;;;;13.77;10.18;;;;;;;20.31;69.85;101828.41;5054052;28;20417;-71
2023/08/11 07:05:28;;;;;;;12.02;9.63;;;;;;;20.45;70.11;101828.34;5057979;28;20044;-71
2023/08/11 07:07:54;;;;;;;10.35;9.10;;;;;;;20.56;69.95;101828.56;5032696;28;20510;-71
2023/08/11 07:10:19;;;;;;;12.82;9.05;;;;;;;20.72;69.49;101819.47;5057069;28;20033;-71
2023/08/11 07:12:44;;;;;;;10.10;7.63;;;;;;;20.82;67.87;101824.09;5047236;28;20023;-71
2023/08/11 07:15:10;;;;;;;11.90;7.70;;;;;;;21.00;69.20;101826.53;5053972;28;20503;-70
2023/08/11 07:17:36;;;;;;;11.48;6.95;;;;;;;21.09;68.22;101828.56;5050314;28;20025;-70
2023/08/11 07:20:01;;;;;;;13.10;7.18;;;;;;;21.22;66.57;101831.28;5054062;28;20078;-70
2023/08/11 07:22:27;;;;;;;8.68;5.85;;;;;;;21.31;64.09;101828.84;5049982;28;20032;-70
2023/08/11 07:24:53;;;;;;;12.95;6.20;;;;;;;21.44;64.11;101836.91;5045904;28;20460;-70
2023/08/11 07:27:18;;;;;;;10.82;5.47;;;;;;;21.65;64.99;101834.53;5051714;28;20529;-70
2023/08/11 07:29:43;;;;;;;9.20;5.45;;;;;;;21.79;64.28;101828.19;5053507;28;20029;-71
2023/08/11 07:32:09;;;;;;;9.27;5.13;;;;;;;21.87;65.57;101829.34;5052141;28;20537;-71
2023/08/11 07:34:36;;;;;;;7.90;4.88;;;;;;;22.02;62.88;101830.06;5034096;28;20021;-71
2023/08/11 07:37:03;;;;;;;8.10;5.60;;;;;;;22.12;62.84;101830.28;5048455;28;20024;-71
2023/08/11 07:39:28;;;;;;;9.15;4.70;;;;;;;22.21;61.38;101839.53;5051815;28;20029;-71
2023/08/11 07:41:53;;;;;;;11.32;5.20;;;;;;;22.38;60.27;101829.25;5049849;28;20039;-70
2023/08/11 07:44:19;;;;;;;11.38;4.60;;;;;;;22.65;59.06;101826.28;5042355;28;20400;-71
2023/08/11 07:46:44;;;;;;;8.52;4.18;;;;;;;23.23;57.56;101831.81;5052110;28;20486;-71
2023/08/11 07:49:10;;;;;;;5.03;4.53;;;;;;;23.72;55.97;101829.78;5052492;28;20036;-71
2023/08/11 07:51:35;;;;;;;6.13;4.22;;;;;;;24.21;57.00;101834.78;5053215;28;20062;-70
2023/08/11 07:54:00;;;;;;;5.55;3.97;;;;;;;24.64;53.70;101836.66;5049965;28;20037;-71
2023/08/11 07:56:25;;;;;;;5.93;3.70;;;;;;;24.93;52.85;101835.03;5052195;28;20025;-71
2023/08/11 07:58:52;;;;;;;5.25;3.90;;;;;;;25.26;51.63;101837.72;5047253;28;20025;-72
2023/08/11 08:01:18;;;;;;;7.78;3.78;;;;;;;25.69;50.55;101841.13;5043786;28;20464;-72
2023/08/11 08:03:44;;;;;;;5.75;3.80;;;;;;;26.01;50.71;101837.38;5060957;28;20031;-72
2023/08/11 08:06:09;;;;;;;9.02;4.10;;;;;;;26.40;48.88;101832.06;5055240;28;20078;-72
2023/08/11 08:08:35;;;;;;;7.15;4.13;;;;;;;26.71;47.36;101828.25;5031778;28;20431;-72
2023/08/11 08:11:01;;;;;;;5.65;3.65;;;;;;;26.84;46.81;101836.13;5050942;28;20520;-72
2023/08/11 08:13:27;;;;;;;4.78;3.80;;;;;;;27.17;46.60;101818.53;5044560;28;20468;-72
2023/08/11 08:15:52;;;;;;;5.38;2.97;;;;;;;27.59;46.72;101828.13;5047019;28;20035;-72
2023/08/11 08:18:17;;;;;;;5.63;3.45;;;;;;;27.79;45.41;101832.50;5044823;28;20144;-72
2023/08/11 08:20:43;;;;;;;5.88;3.60;;;;;;;28.14;43.19;101833.63;5030630;28;20024;-72
2023/08/11 08:23:08;;;;;;;6.05;3.45;;;;;;;28.24;42.55;101828.97;5055726;28;20033;-72
2023/08/11 08:25:34;;;;;;;4.70;3.45;;;;;;;28.65;42.63;101827.56;5053040;28;20025;-72
2023/08/11 08:27:59;;;;;;;4.43;3.20;;;;;;;28.88;42.60;101821.66;5050612;28;20012;-72
2023/08/11 08:30:24;;;;;;;6.47;3.55;;;;;;;28.98;39.50;101831.47;5053464;28;20032;-72
2023/08/11 08:32:49;;;;;;;8.03;3.77;;;;;;;28.95;40.65;101826.31;5054817;28;20396;-72
2023/08/11 08:35:15;;;;;;;5.07;3.03;;;;;;;29.27;40.61;101824.84;5057245;28;20295;-72
2023/08/11 08:37:40;;;;;;;5.10;3.08;;;;;;;29.70;41.61;101831.28;5051286;28;20487;-72
2023/08/11 08:40:08;;;;;;;6.13;3.50;;;;;;;30.02;39.77;101838.75;5043968;28;20048;-72
2023/08/11 08:42:34;;;;;;;4.32;3.33;;;;;;;30.46;39.31;101828.50;5059279;28;20200;-73
2023/08/11 08:45:00;;;;;;;7.50;3.53;;;;;;;30.78;36.91;101826.00;5026331;28;20037;-72
2023/08/11 08:47:26;;;;;;;7.13;3.05;;;;;;;31.06;36.00;101832.84;5049018;28;20025;-73
2023/08/11 08:49:52;;;;;;;4.82;2.97;;;;;;;31.34;37.14;101832.50;5039167;28;20447;-73
2023/08/11 08:52:18;;;;;;;5.15;3.13;;;;;;;32.03;36.17;101830.88;5042371;28;20032;-73
2023/08/11 08:54:44;;;;;;;4.18;3.22;;;;;;;31.98;34.27;101825.94;5020252;28;20028;-73
2023/08/11 08:57:09;;;;;;;5.43;2.95;;;;;;;32.16;34.91;101830.31;5046505;28;20033;-72
2023/08/11 08:59:38;;;;;;;4.35;3.10;;;;;;;32.44;34.57;101828.81;5038356;28;20039;-70
2023/08/11 09:02:06;;;;;;;7.35;3.30;;;;;;;32.84;34.07;101824.06;5047654;28;20079;-70
2023/08/11 09:04:32;;;;;;;5.07;2.85;;;;;;;33.03;32.34;101820.00;5043832;28;20120;-70
2023/08/11 09:06:58;;;;;;;5.45;3.50;;;;;;;33.03;34.16;101820.00;5050527;28;20559;-69
2023/08/11 09:09:24;;;;;;;6.40;2.80;;;;;;;33.19;32.48;101822.56;5050376;28;20390;-70
2023/08/11 09:11:50;;;;;;;5.18;3.00;;;;;;;33.03;32.99;101820.00;5053860;28;20036;-69
2023/08/11 09:14:19;;;;;;;3.47;2.80;;;;;;;33.14;32.73;101824.16;5047260;28;20024;-69
2023/08/11 09:16:45;;;;;;;5.00;3.20;;;;;;;33.38;33.12;101823.03;5044996;28;20059;-70
2023/08/11 09:19:11;;;;;;;4.75;2.90;;;;;;;33.76;31.49;101829.31;5052383;28;20036;-70
2023/08/11 09:21:37;;;;;;;5.53;3.10;;;;;;;34.29;31.54;101820.94;5055966;28;20032;-70
2023/08/11 09:24:03;;;;;;;3.90;2.80;;;;;;;34.81;31.51;101822.53;5048620;28;20032;-70
2023/08/11 09:26:29;;;;;;;7.18;3.50;;;;;;;34.15;31.65;101831.75;5055489;28;20098;-70
2023/08/11 09:28:54;;;;;;;4.43;2.95;;;;;;;34.68;32.94;101820.50;5044270;28;20033;-72
2023/08/11 09:31:24;;;;;;;4.70;2.95;;;;;;;35.12;30.85;101823.06;5042062;28;20127;-69
2023/08/11 09:33:51;;;;;;;5.07;3.15;;;;;;;35.09;30.24;101820.69;5046156;28;20071;-71
2023/08/11 09:36:17;;;;;;;5.28;3.00;;;;;;;35.01;31.63;101816.19;5050992;28;20021;-68
2023/08/11 09:38:47;;;;;;;6.78;2.95;;;;;;;35.28;30.66;101819.13;5050244;28;20020;-69
2023/08/11 09:41:13;;;;;;;7.00;3.10;;;;;;;34.91;31.23;101815.66;5045910;28;20037;-67
2023/08/11 09:43:38;;;;;;;3.80;2.88;;;;;;;34.68;30.81;101812.28;5044224;28;20037;-67
2023/08/11 09:46:04;;;;;;;4.22;3.15;;;;;;;34.52;32.00;101818.88;5044929;28;20056;-68
2023/08/11 09:48:31;;;;;;;8.02;3.05;;;;;;;33.86;36.02;101813.44;5051681;28;20028;-66
2023/08/11 09:50:57;;;;;;;3.08;2.67;;;;;;;32.80;33.83;101810.91;5055412;28;20036;-66
2023/08/11 09:53:24;;;;;;;5.13;2.75;;;;;;;32.43;34.34;101815.31;5046711;28;20416;-68
2023/08/11 09:55:50;;;;;;;4.03;3.10;;;;;;;32.08;35.83;101817.53;5045790;28;20031;-67
2023/08/11 09:58:17;;;;;;;4.53;2.90;;;;;;;32.32;35.34;101818.44;5047851;28;20021;-67
2023/08/11 10:00:45;;;;;;;3.42;2.50;;;;;;;32.53;36.03;101818.66;5026894;28;20037;-67
2023/08/11 10:03:15;;;;;;;3.58;2.65;;;;;;;32.96;35.50;101822.59;5047435;28;20033;-67
2023/08/11 10:05:43;;;;;;;3.72;2.67;;;;;;;33.08;34.63;101816.69;5048308;28;20021;-67
2023/08/11 10:08:19;;;;;;;7.40;2.75;;;;;;;33.39;36.06;101816.50;5017623;28;20072;-67
2023/08/11 10:10:44;;;;;;;4.20;2.47;;;;;;;33.31;33.02;101814.75;5050483;28;20024;-68
2023/08/11 10:13:22;;;;;;;3.15;2.40;;;;;;;32.69;34.51;101823.13;5047427;28;20439;-68
2023/08/11 10:15:50;;;;;;;4.35;2.38;;;;;;;32.26;36.08;101830.94;5047732;28;20048;-67
2023/08/11 10:18:16;;;;;;;2.72;2.42;;;;;;;32.74;35.40;101824.31;5047213;28;20032;-66
2023/08/11 10:20:42;;;;;;;5.57;2.58;;;;;;;33.01;35.03;101817.41;5044744;28;20021;-68
2023/08/11 10:23:08;;;;;;;5.43;2.58;;;;;;;32.92;34.54;101818.56;5048257;28;20033;-68
2023/08/11 10:25:35;;;;;;;3.35;2.53;;;;;;;33.42;34.55;101805.19;5051414;28;20025;-68
2023/08/11 10:28:02;;;;;;;3.47;2.20;;;;;;;33.34;35.25;101811.59;5048202;28;20031;-68
2023/08/11 10:30:28;;;;;;;5.88;2.47;;;;;;;33.12;33.86;101815.28;5037481;28;20134;-68
2023/08/11 10:33:03;;;;;;;4.45;2.78;;;;;;;33.23;35.08;101812.91;5043164;28;20024;-68
2023/08/11 10:35:51;;;;;;;2.50;2.30;;;;;;;33.34;35.03;101813.50;5042725;28;20031;-68
2023/08/11 10:38:25;;;;;;;3.75;2.13;;;;;;;33.30;34.11;101807.56;5042443;28;20389;-68
2023/08/11 10:40:54;;;;;;;4.25;2.47;;;;;;;33.37;33.69;101803.00;5047998;28;20028;-68
2023/08/11 10:43:29;;;;;;;2.75;1.88;;;;;;;33.63;32.20;101807.22;5042832;28;20033;-68
2023/08/11 10:45:55;;;;;;;5.00;2.55;;;;;;;33.91;34.86;101805.47;5037521;28;20045;-69
2023/08/11 10:48:22;;;;;;;2.58;2.17;;;;;;;33.94;31.75;101812.47;5042981;28;20099;-69
2023/08/11 10:50:48;;;;;;;3.03;1.98;;;;;;;34.23;32.80;101808.84;5040192;28;20032;-68
2023/08/11 10:53:16;;;;;;;4.50;2.13;;;;;;;34.27;31.38;101807.38;5039811;28;20024;-68
2023/08/11 10:55:41;;;;;;;3.92;2.38;;;;;;;34.66;31.45;101800.66;5041056;28;21948;-67
2023/08/11 10:58:16;;;;;;;5.30;2.30;;;;;;;34.83;32.32;101812.19;5047653;28;20017;-70
2023/08/11 11:00:42;;;;;;;4.03;1.92;;;;;;;34.86;31.84;101801.66;5046793;28;20441;-68
2023/08/11 11:03:09;;;;;;;2.40;2.10;;;;;;;34.74;31.40;101804.09;5042932;28;20028;-68
2023/08/11 11:05:36;;;;;;;2.58;1.80;;;;;;;34.32;33.44;101807.66;5053794;28;20035;-68
2023/08/11 11:08:02;;;;;;;3.53;1.95;;;;;;;34.72;31.79;101802.59;5046051;28;20044;-67
2023/08/11 11:10:28;;;;;;;5.63;2.30;;;;;;;35.22;32.10;101790.53;5044684;28;20017;-66
2023/08/11 11:12:54;;;;;;;3.75;1.90;;;;;;;34.89;30.95;101795.78;5047740;28;20488;-67
2023/08/11 11:15:19;;;;;;;3.83;2.10;;;;;;;34.92;32.27;101797.25;5043636;28;20093;-67